Time;durP1;ratioP1;P1;durP2;ratioP2;P2;SDS_P1;SDS_P2;PMS_P1;PMS_P2;Temp;Humidity;BMP_temperature;BMP_pressure;BME280_temperature;BME280_humidity;BME280_pressure;Samples;Min_cycle;Max_cycle;Signal;HPM_P1;HPM_P2
2022/11/12 00:02:09;;;;;;;4.10;3.27;;;11.40;99.90;;;;;;5111521;28;20199;-35
2022/11/12 00:04:35;;;;;;;3.30;3.00;;;11.30;99.90;;;;;;5127586;28;20198;-35
2022/11/12 00:07:00;;;;;;;3.27;2.97;;;11.30;99.90;;;;;;5128620;27;20227;-35
2022/11/12 00:09:26;;;;;;;3.23;2.93;;;11.30;99.90;;;;;;5122912;27;20546;-35
2022/11/12 00:11:52;;;;;;;3.37;2.93;;;11.30;99.90;;;;;;5120545;28;20268;-35
2022/11/12 00:14:17;;;;;;;3.40;3.00;;;11.20;99.90;;;;;;5116418;27;20184;-35
2022/11/12 00:16:43;;;;;;;4.67;3.20;;;11.30;99.90;;;;;;5107904;28;20704;-36
2022/11/12 00:19:08;;;;;;;3.77;3.10;;;11.20;99.90;;;;;;5106686;28;20179;-36
2022/11/12 00:21:35;;;;;;;6.40;3.30;;;11.20;99.90;;;;;;5108362;28;20274;-35
2022/11/12 00:24:00;;;;;;;4.13;3.13;;;11.20;99.90;;;;;;5089756;28;20220;-35
2022/11/12 00:26:26;;;;;;;4.40;2.97;;;11.10;99.90;;;;;;5086342;28;20652;-35
2022/11/12 00:28:51;;;;;;;3.87;2.80;;;11.00;99.90;;;;;;5087273;28;20268;-36
2022/11/12 00:31:17;;;;;;;4.20;3.10;;;11.00;99.90;;;;;;5095691;28;20222;-35
2022/11/12 00:33:43;;;;;;;3.53;3.23;;;10.90;99.90;;;;;;5110161;28;20184;-35
2022/11/12 00:36:10;;;;;;;4.03;3.27;;;11.00;99.90;;;;;;5111940;28;20270;-36
2022/11/12 00:38:36;;;;;;;3.87;3.47;;;11.10;99.90;;;;;;5111189;28;20559;-35
2022/11/12 00:41:01;;;;;;;3.13;2.83;;;11.10;99.90;;;;;;5111537;28;20883;-35
2022/11/12 00:43:27;;;;;;;2.93;2.73;;;11.10;99.90;;;;;;5111057;28;20188;-35
2022/11/12 00:45:53;;;;;;;5.80;3.27;;;11.00;99.90;;;;;;5111638;28;20175;-36
2022/11/12 00:48:18;;;;;;;3.83;3.43;;;11.10;99.90;;;;;;5104106;28;20454;-36
2022/11/12 00:50:44;;;;;;;3.00;2.70;;;11.10;99.90;;;;;;5090700;28;20196;-35
2022/11/12 00:53:11;;;;;;;4.23;3.20;;;11.00;99.90;;;;;;5090742;28;20287;-35
2022/11/12 00:55:36;;;;;;;2.93;2.63;;;11.00;99.90;;;;;;5090431;28;20181;-35
2022/11/12 00:58:02;;;;;;;3.70;3.40;;;11.00;99.90;;;;;;5090851;28;20890;-35
2022/11/12 01:00:28;;;;;;;3.90;3.17;;;10.90;99.90;;;;;;5090417;28;20630;-36
2022/11/12 01:02:54;;;;;;;3.90;3.40;;;10.80;99.90;;;;;;5090677;28;20177;-36
2022/11/12 01:05:20;;;;;;;3.73;2.70;;;10.60;99.90;;;;;;5090645;28;20223;-35
2022/11/12 01:07:46;;;;;;;3.60;3.17;;;10.70;99.90;;;;;;5090779;28;20450;-36
2022/11/12 01:10:13;;;;;;;2.90;2.60;;;10.70;99.90;;;;;;5090076;28;20442;-36
2022/11/12 01:12:39;;;;;;;4.60;3.50;;;10.60;99.90;;;;;;5090455;28;20813;-35
2022/11/12 01:15:06;;;;;;;5.30;3.37;;;10.60;99.90;;;;;;5090762;28;20422;-35
2022/11/12 01:17:31;;;;;;;3.67;2.70;;;10.50;99.90;;;;;;5090241;28;20662;-37
2022/11/12 01:19:57;;;;;;;3.63;3.23;;;10.20;99.90;;;;;;5089009;28;20417;-36
2022/11/12 01:22:23;;;;;;;2.87;2.57;;;10.10;99.90;;;;;;5097035;28;20618;-36
2022/11/12 01:24:48;;;;;;;4.00;3.10;;;10.20;99.90;;;;;;5110463;28;20204;-35
2022/11/12 01:27:14;;;;;;;4.20;2.97;;;10.30;99.90;;;;;;5110456;28;20203;-35
2022/11/12 01:29:40;;;;;;;4.10;3.07;;;10.40;99.90;;;;;;5110347;28;20176;-35
2022/11/12 01:32:06;;;;;;;5.07;2.90;;;10.30;99.90;;;;;;5110771;28;20187;-35
2022/11/12 01:34:32;;;;;;;4.70;2.90;;;10.10;99.90;;;;;;5108816;27;20236;-35
2022/11/12 01:36:58;;;;;;;5.77;3.30;;;9.90;99.90;;;;;;5110343;28;20839;-35
2022/11/12 01:39:24;;;;;;;3.40;2.77;;;9.70;99.90;;;;;;5109881;28;20967;-36
2022/11/12 01:41:49;;;;;;;5.53;3.13;;;9.60;99.90;;;;;;5109184;28;20180;-35
2022/11/12 01:44:22;;;;;;;3.00;2.80;;;9.40;99.90;;;;;;5110105;28;20551;-35
2022/11/12 01:47:17;;;;;;;4.33;3.00;;;9.30;99.90;;;;;;5110438;28;20172;-36
2022/11/12 01:49:49;;;;;;;3.63;3.13;;;9.30;99.90;;;;;;5109719;28;20508;-36
2022/11/12 01:52:17;;;;;;;3.83;3.33;;;9.40;99.90;;;;;;5108918;28;20493;-36
2022/11/12 01:54:48;;;;;;;4.30;3.40;;;9.30;99.90;;;;;;5110026;28;20440;-35
2022/11/12 01:57:15;;;;;;;3.67;2.80;;;9.20;99.90;;;;;;5110002;27;20969;-36
2022/11/12 01:59:45;;;;;;;3.00;2.70;;;9.00;99.90;;;;;;5109475;28;20427;-36
2022/11/12 02:02:12;;;;;;;3.77;3.00;;;9.00;99.90;;;;;;5108557;28;20417;-36
2022/11/12 02:04:38;;;;;;;3.60;3.00;;;8.90;99.90;;;;;;5109839;28;20525;-36
2022/11/12 02:07:06;;;;;;;3.20;2.83;;;8.90;99.90;;;;;;5109935;27;20486;-35
2022/11/12 02:09:33;;;;;;;3.87;3.00;;;9.10;99.90;;;;;;5109530;28;20457;-35
2022/11/12 02:11:59;;;;;;;3.17;2.73;;;9.30;99.90;;;;;;5109701;28;20405;-37
2022/11/12 02:14:25;;;;;;;4.00;3.10;;;9.40;99.90;;;;;;5109354;28;20406;-35
2022/11/12 02:16:52;;;;;;;5.80;3.40;;;9.30;99.90;;;;;;5109454;28;20410;-35
2022/11/12 02:19:17;;;;;;;3.33;3.00;;;9.40;99.90;;;;;;5109294;28;20451;-35
2022/11/12 02:21:44;;;;;;;3.10;2.90;;;9.50;99.90;;;;;;5108511;28;20421;-35
2022/11/12 02:24:12;;;;;;;4.13;3.07;;;9.50;99.90;;;;;;5089118;28;20191;-35
2022/11/12 02:26:44;;;;;;;3.60;3.30;;;9.70;99.90;;;;;;5089306;28;21006;-35
2022/11/12 02:29:11;;;;;;;4.70;3.40;;;9.50;99.90;;;;;;5089224;28;20463;-35
2022/11/12 02:31:36;;;;;;;3.27;2.97;;;9.60;99.90;;;;;;5089160;28;20920;-36
2022/11/12 02:34:02;;;;;;;2.70;2.50;;;9.70;99.90;;;;;;5086097;28;20422;-35
2022/11/12 02:36:29;;;;;;;2.97;2.70;;;9.70;99.90;;;;;;5088824;28;20267;-35
2022/11/12 02:38:54;;;;;;;3.10;2.80;;;9.70;99.90;;;;;;5088578;28;20462;-35
2022/11/12 02:41:20;;;;;;;4.47;3.10;;;9.70;99.90;;;;;;5087540;28;20426;-35
2022/11/12 02:43:46;;;;;;;3.73;3.20;;;9.70;99.90;;;;;;5088777;28;20188;-35
2022/11/12 02:46:12;;;;;;;3.70;2.87;;;9.70;99.90;;;;;;5088967;28;20444;-36
2022/11/12 02:48:37;;;;;;;3.63;3.13;;;9.80;99.90;;;;;;5088734;28;20180;-35
2022/11/12 02:51:04;;;;;;;3.17;2.87;;;9.80;99.90;;;;;;5088916;28;20699;-36
2022/11/12 02:53:31;;;;;;;3.73;3.43;;;9.80;99.90;;;;;;5088322;28;20307;-35
2022/11/12 02:55:57;;;;;;;4.60;2.93;;;9.80;99.90;;;;;;5088788;28;20418;-35
2022/11/12 02:58:23;;;;;;;3.50;3.20;;;9.80;99.90;;;;;;5086653;28;20979;-35
2022/11/12 03:00:50;;;;;;;3.93;3.33;;;9.80;99.90;;;;;;5088644;28;20434;-36
2022/11/12 03:03:16;;;;;;;3.63;2.83;;;9.90;99.90;;;;;;5088525;28;20414;-35
2022/11/12 03:05:43;;;;;;;5.30;3.30;;;9.90;99.90;;;;;;5088588;28;20920;-36
2022/11/12 03:08:08;;;;;;;6.60;3.33;;;10.00;99.90;;;;;;5088480;28;20200;-35
2022/11/12 03:10:37;;;;;;;4.97;2.80;;;10.00;99.90;;;;;;5088208;28;20981;-35
2022/11/12 03:13:04;;;;;;;4.17;3.23;;;10.00;99.90;;;;;;5087906;28;20180;-35
2022/11/12 03:15:30;;;;;;;3.83;3.00;;;10.10;99.90;;;;;;5088459;28;20467;-35
2022/11/12 03:17:59;;;;;;;3.90;3.10;;;10.10;99.90;;;;;;5088483;28;20838;-35
2022/11/12 03:20:26;;;;;;;5.13;3.27;;;10.10;99.90;;;;;;5088341;28;20418;-35
2022/11/12 03:23:06;;;;;;;3.47;3.00;;;9.80;99.90;;;;;;5098691;28;20425;-35
2022/11/12 03:25:32;;;;;;;4.40;3.37;;;9.70;99.90;;;;;;5108793;28;20428;-35
2022/11/12 03:28:07;;;;;;;3.60;2.93;;;9.70;99.90;;;;;;5108520;28;20418;-35
2022/11/12 03:30:35;;;;;;;2.90;2.37;;;9.70;99.90;;;;;;5108403;28;20885;-35
2022/11/12 03:33:01;;;;;;;3.50;2.73;;;9.60;99.90;;;;;;5107064;28;20530;-35
2022/11/12 03:35:27;;;;;;;3.03;2.73;;;9.70;99.90;;;;;;5108567;28;21102;-36
2022/11/12 03:37:53;;;;;;;3.97;2.83;;;9.80;99.90;;;;;;5108420;28;20544;-35
2022/11/12 03:40:19;;;;;;;3.23;2.93;;;9.80;99.90;;;;;;5108499;28;20467;-36
2022/11/12 03:42:47;;;;;;;3.53;3.03;;;10.00;99.90;;;;;;5108397;28;20190;-35
2022/11/12 03:45:13;;;;;;;3.40;2.63;;;10.00;99.90;;;;;;5108372;28;20445;-35
2022/11/12 03:47:47;;;;;;;2.40;2.17;;;10.00;99.90;;;;;;5108627;28;20829;-35
2022/11/12 03:50:14;;;;;;;3.30;2.93;;;10.00;99.90;;;;;;5108298;28;20971;-35
2022/11/12 03:52:48;;;;;;;3.93;3.03;;;10.10;99.90;;;;;;5107919;28;20714;-35
2022/11/12 03:55:15;;;;;;;3.70;2.40;;;10.00;99.90;;;;;;5108355;28;20540;-36
2022/11/12 03:57:41;;;;;;;3.23;2.87;;;10.00;99.90;;;;;;5108270;28;20500;-35
2022/11/12 04:00:09;;;;;;;4.00;2.50;;;10.00;99.90;;;;;;5108258;28;20445;-35
2022/11/12 04:02:35;;;;;;;3.17;2.67;;;9.80;99.90;;;;;;5108037;28;20634;-35
2022/11/12 04:10:52;;;;;;;3.70;2.70;;;9.60;99.90;;;;;;5112597;28;20799;-35
2022/11/12 04:13:27;;;;;;;3.97;2.83;;;9.80;99.90;;;;;;5112189;28;20417;-35
2022/11/12 04:21:55;;;;;;;4.27;2.80;;;9.90;99.90;;;;;;5111542;28;20445;-35
2022/11/12 04:27:23;;;;;;;2.97;2.20;;;9.60;99.90;;;;;;5091391;28;20419;-35
2022/11/12 04:32:37;;;;;;;3.30;2.30;;;9.50;99.90;;;;;;5089550;28;20418;-35
2022/11/12 04:35:04;;;;;;;3.33;2.50;;;9.60;99.90;;;;;;5091622;28;20501;-36
2022/11/12 04:37:43;;;;;;;3.03;2.27;;;9.60;99.90;;;;;;5091085;28;20458;-36
2022/11/12 04:45:49;;;;;;;3.67;2.70;;;9.80;99.90;;;;;;5089958;28;20422;-35
2022/11/12 04:48:15;;;;;;;2.40;2.20;;;9.90;99.90;;;;;;5090977;28;20406;-35
2022/11/12 04:50:43;;;;;;;3.67;2.20;;;9.90;99.90;;;;;;5090800;28;20893;-36
2022/11/12 04:53:09;;;;;;;3.70;2.37;;;9.90;99.90;;;;;;5090489;28;20422;-35
2022/11/12 04:55:34;;;;;;;4.07;2.47;;;9.90;99.90;;;;;;5090802;28;20426;-35
2022/11/12 04:58:00;;;;;;;4.23;2.60;;;9.90;99.90;;;;;;5090899;28;20462;-35
2022/11/12 05:00:26;;;;;;;2.90;2.47;;;9.90;99.90;;;;;;5089317;28;20180;-35
2022/11/12 05:02:51;;;;;;;2.50;2.30;;;9.90;99.90;;;;;;5090526;28;20679;-35
2022/11/12 05:05:17;;;;;;;3.20;2.80;;;9.90;99.90;;;;;;5090773;28;20237;-35
2022/11/12 05:07:43;;;;;;;2.30;2.10;;;9.90;99.90;;;;;;5091030;28;20208;-36
2022/11/12 05:10:09;;;;;;;3.33;2.50;;;9.80;99.90;;;;;;5090382;28;20216;-35
2022/11/12 05:12:35;;;;;;;2.13;1.93;;;9.60;99.90;;;;;;5090460;28;20422;-35
2022/11/12 05:15:01;;;;;;;2.30;2.00;;;9.50;99.90;;;;;;5090429;28;20762;-35
2022/11/12 05:17:27;;;;;;;3.53;2.97;;;9.40;99.90;;;;;;5090111;28;20465;-35
2022/11/12 05:19:53;;;;;;;2.53;2.27;;;9.40;99.90;;;;;;5090105;28;20916;-35
2022/11/12 05:22:18;;;;;;;2.37;2.10;;;9.40;99.90;;;;;;5096349;28;20180;-35
2022/11/12 05:24:44;;;;;;;4.30;2.47;;;9.30;99.90;;;;;;5110593;28;20188;-35
2022/11/12 05:27:18;;;;;;;2.43;2.20;;;9.20;99.90;;;;;;5110567;28;20205;-35
2022/11/12 05:29:44;;;;;;;3.07;2.37;;;9.00;99.90;;;;;;5110475;28;20270;-35
2022/11/12 05:32:12;;;;;;;2.57;2.30;;;8.80;99.90;;;;;;5110151;27;20516;-36
2022/11/12 05:34:38;;;;;;;2.90;2.63;;;8.70;99.90;;;;;;5109365;28;20449;-35
2022/11/12 05:37:05;;;;;;;2.17;1.97;;;8.60;99.90;;;;;;5110108;27;20472;-35
2022/11/12 05:39:31;;;;;;;2.90;2.17;;;8.40;99.90;;;;;;5110223;28;20176;-35
2022/11/12 05:41:56;;;;;;;2.47;2.27;;;8.30;99.90;;;;;;5110478;28;20955;-37
2022/11/12 05:44:22;;;;;;;2.40;2.20;;;8.30;99.90;;;;;;5110421;28;20311;-36
2022/11/12 05:46:49;;;;;;;3.27;2.20;;;8.20;99.90;;;;;;5110204;28;20275;-35
2022/11/12 05:49:15;;;;;;;2.77;2.30;;;8.20;99.90;;;;;;5108914;28;20224;-35
2022/11/12 05:51:40;;;;;;;2.53;2.30;;;8.10;99.90;;;;;;5110116;28;20414;-36
2022/11/12 05:54:06;;;;;;;3.30;2.30;;;8.10;99.90;;;;;;5109890;28;20508;-36
2022/11/12 05:56:32;;;;;;;3.83;1.90;;;8.10;99.90;;;;;;5110270;28;20187;-36
2022/11/12 05:58:58;;;;;;;5.17;2.27;;;8.10;99.90;;;;;;5109559;27;20306;-35
2022/11/12 06:01:23;;;;;;;6.47;2.60;;;8.10;99.90;;;;;;5110141;28;20413;-35
2022/11/12 06:03:49;;;;;;;2.97;2.67;;;8.20;99.90;;;;;;5108412;28;20277;-35
2022/11/12 06:06:15;;;;;;;3.13;2.00;;;8.20;99.90;;;;;;5110065;28;20799;-35
2022/11/12 06:08:40;;;;;;;2.67;2.47;;;8.20;99.90;;;;;;5109532;28;20317;-35
2022/11/12 06:11:06;;;;;;;4.80;2.70;;;8.10;99.90;;;;;;5110152;28;20413;-35
2022/11/12 06:13:32;;;;;;;3.10;2.80;;;8.00;99.90;;;;;;5109420;28;20194;-35
2022/11/12 06:15:57;;;;;;;2.97;2.67;;;8.10;99.90;;;;;;5110073;28;20180;-35
2022/11/12 06:18:23;;;;;;;3.43;2.60;;;8.20;99.90;;;;;;5109749;28;20246;-35
2022/11/12 06:21:18;;;;;;;4.07;2.70;;;8.30;99.90;;;;;;5109497;28;20214;-35
2022/11/12 06:23:35;;;;;;;5.10;3.10;;;8.30;99.90;;;;;;5109281;28;20596;-35
2022/11/12 06:26:02;;;;;;;3.17;2.87;;;8.40;99.90;;;;;;5109607;28;20504;-35
2022/11/12 06:28:28;;;;;;;3.80;2.70;;;8.50;99.90;;;;;;5108508;28;20428;-36
2022/11/12 06:30:54;;;;;;;4.20;2.73;;;8.40;99.90;;;;;;5109884;28;20500;-35
2022/11/12 06:33:20;;;;;;;3.07;2.57;;;8.40;99.90;;;;;;5107364;28;20501;-35
2022/11/12 06:35:46;;;;;;;2.77;2.57;;;8.30;99.90;;;;;;5108233;28;20191;-36
2022/11/12 06:38:11;;;;;;;3.97;2.73;;;8.20;99.90;;;;;;5109666;28;20460;-35
2022/11/12 06:40:37;;;;;;;5.50;3.50;;;8.00;99.90;;;;;;5108978;28;20184;-35
2022/11/12 06:43:03;;;;;;;3.53;2.90;;;8.00;99.90;;;;;;5108961;28;20186;-35
2022/11/12 06:45:28;;;;;;;3.93;3.37;;;8.00;99.90;;;;;;5107979;28;20267;-35
2022/11/12 06:47:58;;;;;;;4.00;3.50;;;8.00;99.90;;;;;;5109008;28;20531;-35
2022/11/12 06:50:23;;;;;;;3.30;3.00;;;7.90;99.90;;;;;;5108822;28;20195;-36
2022/11/12 06:52:49;;;;;;;3.40;2.77;;;7.80;99.90;;;;;;5108186;28;20800;-35
2022/11/12 06:55:15;;;;;;;4.63;3.20;;;7.80;99.90;;;;;;5087463;28;20184;-35
2022/11/12 06:57:40;;;;;;;4.30;3.10;;;7.70;99.90;;;;;;5087362;28;20208;-35
2022/11/12 07:00:08;;;;;;;3.53;3.23;;;7.60;99.90;;;;;;5088222;28;20180;-36
2022/11/12 07:02:35;;;;;;;4.73;3.00;;;7.80;99.90;;;;;;5091588;28;20181;-35
2022/11/12 07:05:00;;;;;;;3.57;3.20;;;8.10;99.90;;;;;;5102647;28;20503;-36
2022/11/12 07:07:28;;;;;;;3.67;3.37;;;8.00;99.90;;;;;;5103344;27;20442;-35
2022/11/12 07:09:53;;;;;;;3.17;2.87;;;8.00;99.90;;;;;;5087516;28;20199;-35
2022/11/12 07:12:19;;;;;;;4.23;3.50;;;8.00;99.90;;;;;;5122945;27;20923;-36
2022/11/12 07:14:45;;;;;;;3.90;3.43;;;8.00;99.90;;;;;;5123516;27;20245;-35
2022/11/12 07:17:11;;;;;;;3.80;3.30;;;8.10;99.90;;;;;;5108437;28;20260;-35
2022/11/12 07:19:37;;;;;;;4.33;3.20;;;8.10;99.90;;;;;;5090318;28;20414;-35
2022/11/12 07:22:02;;;;;;;3.30;2.97;;;8.20;99.90;;;;;;5101038;28;20192;-35
2022/11/12 07:24:28;;;;;;;5.47;3.50;;;8.40;99.90;;;;;;5088070;28;20668;-35
2022/11/12 07:26:54;;;;;;;5.00;3.40;;;8.40;99.90;;;;;;5088354;28;20180;-36
2022/11/12 07:29:20;;;;;;;4.20;2.87;;;8.40;99.90;;;;;;5090372;28;20423;-35
2022/11/12 07:31:45;;;;;;;4.07;3.20;;;8.40;99.90;;;;;;5097619;28;20176;-36
2022/11/12 07:34:11;;;;;;;5.73;2.93;;;8.40;99.90;;;;;;5089685;28;20184;-36
2022/11/12 07:36:37;;;;;;;2.77;2.50;;;8.50;99.90;;;;;;5088533;28;20176;-35
2022/11/12 07:39:02;;;;;;;2.87;2.63;;;8.50;99.90;;;;;;5087785;28;20216;-36
2022/11/12 07:41:28;;;;;;;3.53;2.00;;;8.80;99.90;;;;;;5091287;28;20187;-35
2022/11/12 07:43:53;;;;;;;2.10;1.90;;;8.80;99.90;;;;;;5091924;28;20181;-35
2022/11/12 07:46:25;;;;;;;2.30;1.90;;;9.00;99.90;;;;;;5092406;28;20407;-35
2022/11/12 07:48:52;;;;;;;2.70;2.27;;;9.30;99.90;;;;;;5092055;28;20262;-35
2022/11/12 07:51:20;;;;;;;2.63;2.43;;;9.60;99.90;;;;;;5092478;28;20411;-36
2022/11/12 07:53:46;;;;;;;3.20;2.00;;;9.90;99.90;;;;;;5098152;27;20436;-35
2022/11/12 07:56:17;;;;;;;2.60;2.37;;;10.20;99.90;;;;;;5112958;27;20444;-36
2022/11/12 07:58:43;;;;;;;2.60;2.30;;;10.50;99.90;;;;;;5108730;27;20540;-35
2022/11/12 08:01:15;;;;;;;2.57;2.10;;;10.80;99.90;;;;;;5108438;27;20899;-35
2022/11/12 08:03:41;;;;;;;2.93;2.63;;;11.10;99.90;;;;;;5100752;28;20973;-35
2022/11/12 08:06:07;;;;;;;2.50;2.30;;;11.40;99.90;;;;;;5096069;28;20559;-35
2022/11/12 08:08:32;;;;;;;3.40;2.47;;;11.60;99.90;;;;;;5098198;28;20249;-36
2022/11/12 08:10:58;;;;;;;2.40;2.20;;;11.80;99.90;;;;;;5090449;28;20651;-35
2022/11/12 08:13:24;;;;;;;2.50;2.30;;;12.00;99.90;;;;;;5091785;28;20765;-35
2022/11/12 08:15:51;;;;;;;2.53;2.30;;;12.20;99.90;;;;;;5091595;28;20505;-36
2022/11/12 08:18:17;;;;;;;3.60;2.30;;;12.30;99.90;;;;;;5091595;28;20457;-36
2022/11/12 08:20:43;;;;;;;2.80;2.27;;;12.50;99.90;;;;;;5091631;28;20411;-35
2022/11/12 08:23:09;;;;;;;2.83;2.13;;;12.70;99.90;;;;;;5102856;28;20422;-35
2022/11/12 08:25:35;;;;;;;2.13;1.97;;;12.90;99.90;;;;;;5110572;28;20449;-35
2022/11/12 08:28:01;;;;;;;3.50;2.20;;;13.10;99.90;;;;;;5110641;28;20421;-36
2022/11/12 08:30:28;;;;;;;3.07;2.30;;;13.30;99.90;;;;;;5110399;28;20412;-35
2022/11/12 08:32:58;;;;;;;3.13;2.20;;;13.60;99.90;;;;;;5110514;28;20184;-36
2022/11/12 08:35:26;;;;;;;2.30;2.10;;;13.70;99.60;;;;;;5112026;28;20414;-35
2022/11/12 08:37:58;;;;;;;1.60;1.50;;;13.90;99.70;;;;;;5111469;28;20506;-37
2022/11/12 08:40:25;;;;;;;3.23;2.07;;;14.10;99.20;;;;;;5103549;27;20406;-35
2022/11/12 08:43:04;;;;;;;2.33;2.10;;;14.20;98.70;;;;;;5100368;28;20410;-36
2022/11/12 08:45:35;;;;;;;2.57;2.03;;;14.40;98.70;;;;;;5100798;28;20779;-36
2022/11/12 08:48:03;;;;;;;2.60;2.40;;;14.70;98.50;;;;;;5099696;28;20427;-36
2022/11/12 08:50:29;;;;;;;2.70;2.10;;;14.80;98.30;;;;;;5108609;27;20438;-35
2022/11/12 08:53:02;;;;;;;2.40;2.00;;;15.10;98.30;;;;;;5106047;27;20421;-35
2022/11/12 08:55:29;;;;;;;3.00;2.33;;;15.30;97.40;;;;;;5104057;28;20172;-35
2022/11/12 08:57:58;;;;;;;2.90;1.60;;;15.50;96.80;;;;;;5091494;28;20511;-36
2022/11/12 09:00:24;;;;;;;2.33;1.57;;;15.60;96.30;;;;;;5091075;27;20453;-35
2022/11/12 09:02:49;;;;;;;2.13;1.93;;;15.70;95.80;;;;;;5124059;27;20416;-36
2022/11/12 09:05:15;;;;;;;1.90;1.63;;;15.90;95.40;;;;;;5131894;27;20417;-36
2022/11/12 09:07:40;;;;;;;1.83;1.53;;;16.00;95.70;;;;;;5131953;27;20209;-37
2022/11/12 09:10:06;;;;;;;2.63;1.90;;;16.20;95.00;;;;;;5131151;27;20561;-36
2022/11/12 09:12:32;;;;;;;1.90;1.50;;;16.30;94.40;;;;;;5131376;27;20186;-36
2022/11/12 09:14:58;;;;;;;2.90;1.73;;;16.50;94.60;;;;;;5131319;27;20457;-35
2022/11/12 09:17:24;;;;;;;2.43;1.70;;;16.70;94.00;;;;;;5131881;27;20190;-36
2022/11/12 09:19:50;;;;;;;4.23;1.37;;;16.80;93.40;;;;;;5129414;27;20417;-36
2022/11/12 09:22:15;;;;;;;1.90;1.43;;;17.10;92.60;;;;;;5125843;27;20535;-36
2022/11/12 09:24:41;;;;;;;1.80;1.40;;;17.30;92.50;;;;;;5110503;28;20425;-36
2022/11/12 09:27:07;;;;;;;4.30;1.80;;;17.40;92.10;;;;;;5109446;28;20424;-36
2022/11/12 09:29:32;;;;;;;2.73;1.73;;;17.50;91.00;;;;;;5109346;28;20675;-37
2022/11/12 09:31:58;;;;;;;1.63;1.50;;;17.70;91.40;;;;;;5109663;28;20603;-36
2022/11/12 09:34:24;;;;;;;2.07;1.50;;;17.80;90.60;;;;;;5125439;27;20210;-37
2022/11/12 09:36:50;;;;;;;2.00;1.53;;;18.00;90.80;;;;;;5123029;27;20189;-36
2022/11/12 09:39:16;;;;;;;1.60;1.47;;;18.10;90.20;;;;;;5121682;27;20465;-36
2022/11/12 09:41:41;;;;;;;7.93;1.80;;;18.20;90.20;;;;;;5129090;27;20401;-36
2022/11/12 09:44:15;;;;;;;1.70;1.60;;;18.20;88.30;;;;;;5130611;27;20198;-36
2022/11/12 09:47:01;;;;;;;1.73;1.60;;;18.10;87.80;;;;;;5130997;27;20199;-37
2022/11/12 09:49:45;;;;;;;1.40;1.30;;;18.30;88.70;;;;;;5128014;27;20442;-36
2022/11/12 09:52:15;;;;;;;2.10;1.50;;;18.40;87.80;;;;;;5125657;27;20440;-37
2022/11/12 09:54:41;;;;;;;2.77;1.50;;;18.50;87.00;;;;;;5130456;27;20408;-37
2022/11/12 09:57:11;;;;;;;3.30;1.67;;;18.60;89.90;;;;;;5130539;27;20421;-36
2022/11/12 09:59:40;;;;;;;1.33;1.20;;;18.60;90.60;;;;;;5130238;27;20416;-36
2022/11/12 10:02:18;;;;;;;1.93;1.47;;;18.50;88.20;;;;;;5130411;27;20420;-36
2022/11/12 10:04:55;;;;;;;1.30;1.20;;;18.50;89.30;;;;;;5130520;27;20412;-37
2022/11/12 10:08:01;;;;;;;1.30;1.00;;;18.50;89.20;;;;;;5130232;27;20926;-36
2022/11/12 10:10:34;;;;;;;1.53;1.43;;;18.60;86.40;;;;;;5126335;27;20463;-36
2022/11/12 10:13:06;;;;;;;2.43;1.40;;;18.70;89.30;;;;;;5121296;27;20666;-36
2022/11/12 10:18:38;;;;;;;1.67;1.50;;;18.80;90.10;;;;;;5129616;27;20516;-36
2022/11/12 10:21:11;;;;;;;2.17;1.50;;;18.70;88.80;;;;;;5130545;27;20422;-37
2022/11/12 10:23:44;;;;;;;1.43;1.33;;;18.50;88.70;;;;;;5112597;27;20449;-36
2022/11/12 10:26:21;;;;;;;2.07;1.30;;;18.30;88.10;;;;;;5109999;28;20709;-36
2022/11/12 10:28:54;;;;;;;1.73;1.30;;;18.10;89.90;;;;;;5108779;28;20429;-36
2022/11/12 10:31:20;;;;;;;2.40;1.70;;;18.00;91.20;;;;;;5109689;28;20806;-37
2022/11/12 10:33:46;;;;;;;1.57;1.10;;;17.90;90.50;;;;;;5108141;28;20414;-37
2022/11/12 10:36:21;;;;;;;2.83;1.43;;;17.80;90.50;;;;;;5109441;28;20453;-37
2022/11/12 10:38:51;;;;;;;1.97;1.53;;;17.80;91.10;;;;;;5109181;28;20496;-37
2022/11/12 10:41:22;;;;;;;1.70;1.23;;;17.80;91.80;;;;;;5108179;28;20424;-37
2022/11/12 10:44:13;;;;;;;8.27;3.33;;;17.70;91.30;;;;;;5109174;28;20799;-36
2022/11/12 10:46:39;;;;;;;3.20;2.90;;;17.60;93.10;;;;;;5109301;28;20496;-37
2022/11/12 10:49:21;;;;;;;6.30;3.80;;;17.60;94.20;;;;;;5108932;28;20859;-37
2022/11/12 10:51:58;;;;;;;4.63;4.20;;;17.50;95.00;;;;;;5109211;28;20571;-37
2022/11/12 10:54:35;;;;;;;7.73;3.77;;;17.40;95.30;;;;;;5108544;28;20613;-36
2022/11/12 10:57:20;;;;;;;4.93;4.00;;;17.30;95.80;;;;;;5109112;28;20783;-36
2022/11/12 10:59:46;;;;;;;4.10;3.70;;;17.20;96.50;;;;;;5108588;28;20851;-36
2022/11/12 11:02:17;;;;;;;5.93;3.53;;;17.20;96.30;;;;;;5108704;28;20453;-36
2022/11/12 11:04:42;;;;;;;4.30;3.37;;;17.20;96.10;;;;;;5101409;27;20187;-36
2022/11/12 11:07:17;;;;;;;4.00;3.60;;;17.20;95.60;;;;;;5109668;27;20437;-36
2022/11/12 11:10:03;;;;;;;5.50;3.13;;;17.10;96.30;;;;;;5127188;27;20503;-37
2022/11/12 11:12:32;;;;;;;4.30;3.40;;;17.00;96.80;;;;;;5128230;27;20425;-36
2022/11/12 11:15:19;;;;;;;4.87;3.63;;;17.00;97.40;;;;;;5129309;27;20443;-36
2022/11/12 11:17:45;;;;;;;4.07;3.60;;;17.00;97.40;;;;;;5129198;27;20699;-36
2022/11/12 11:20:43;;;;;;;3.67;3.30;;;17.00;97.50;;;;;;5129014;27;20440;-36
2022/11/12 11:24:03;;;;;;;4.43;4.03;;;17.00;97.50;;;;;;5108235;27;20183;-36
2022/11/12 11:26:43;;;;;;;6.30;3.90;;;17.00;97.70;;;;;;5064056;28;20798;-37
2022/11/12 11:29:44;;;;;;;4.67;3.20;;;17.00;97.30;;;;;;5116435;28;20448;-36
2022/11/12 11:32:38;;;;;;;3.40;3.10;;;17.10;97.50;;;;;;5109956;28;20423;-36
2022/11/12 11:35:24;;;;;;;5.17;3.67;;;17.10;97.60;;;;;;5115592;28;20430;-36
2022/11/12 11:38:02;;;;;;;3.80;3.50;;;17.30;97.50;;;;;;5128851;27;20456;-37
2022/11/12 11:40:33;;;;;;;17.23;4.27;;;17.50;97.50;;;;;;5128803;27;20922;-35
2022/11/12 11:43:17;;;;;;;4.63;3.33;;;17.60;98.10;;;;;;5127085;28;20405;-36
2022/11/12 11:45:55;;;;;;;4.40;3.47;;;17.70;97.30;;;;;;5128859;27;20404;-36
2022/11/12 11:48:26;;;;;;;5.83;4.23;;;17.70;95.90;;;;;;5128738;27;20412;-36
2022/11/12 11:51:07;;;;;;;5.67;3.73;;;17.80;95.90;;;;;;5129087;27;20405;-37
2022/11/12 11:53:52;;;;;;;5.57;4.10;;;17.80;97.00;;;;;;5119232;27;20500;-36
2022/11/12 11:56:30;;;;;;;6.07;3.53;;;17.90;97.00;;;;;;5115394;27;20487;-36
2022/11/12 11:59:39;;;;;;;5.00;3.67;;;17.90;96.90;;;;;;5109540;28;20559;-36
2022/11/12 12:02:42;;;;;;;8.40;4.37;;;17.90;96.50;;;;;;5099784;28;20421;-37
2022/11/12 12:05:55;;;;;;;5.97;3.60;;;18.00;96.60;;;;;;5110681;28;20763;-36
2022/11/12 12:08:31;;;;;;;4.03;2.43;;;18.00;97.00;;;;;;5086786;28;20572;-37
2022/11/12 12:11:00;;;;;;;2.53;2.33;;;18.00;91.60;;;;;;5086518;28;20418;-37
2022/11/12 12:13:51;;;;;;;3.87;3.03;;;18.00;91.30;;;;;;5087893;28;20407;-36
2022/11/12 12:16:33;;;;;;;2.60;2.40;;;18.00;90.80;;;;;;5087896;28;20478;-36
2022/11/12 12:19:05;;;;;;;3.40;2.70;;;18.00;90.50;;;;;;5087414;28;21034;-36
2022/11/12 12:21:35;;;;;;;3.13;2.80;;;17.90;90.10;;;;;;5088002;28;21016;-36
2022/11/12 12:24:14;;;;;;;3.30;2.50;;;17.90;89.10;;;;;;5107823;28;20434;-36
2022/11/12 12:26:53;;;;;;;3.73;3.13;;;17.80;89.40;;;;;;5110269;27;20410;-36
2022/11/12 12:29:44;;;;;;;4.53;2.73;;;17.70;90.10;;;;;;5121962;27;20422;-36
2022/11/12 12:32:31;;;;;;;2.70;2.47;;;17.70;90.00;;;;;;5132315;27;20413;-36
2022/11/12 12:35:07;;;;;;;4.50;2.60;;;17.60;90.00;;;;;;5132213;27;20409;-37
2022/11/12 12:38:02;;;;;;;2.47;2.27;;;17.60;90.20;;;;;;5131948;27;20444;-36
2022/11/12 12:40:36;;;;;;;2.73;2.43;;;17.60;89.20;;;;;;5115296;27;20417;-36
2022/11/12 12:43:21;;;;;;;2.73;2.53;;;17.60;89.30;;;;;;5132556;27;20409;-36
2022/11/12 12:45:47;;;;;;;3.83;2.27;;;17.50;90.10;;;;;;5133449;27;20401;-36
2022/11/12 12:48:20;;;;;;;4.37;2.13;;;17.60;90.40;;;;;;5131957;27;20427;-36
2022/11/12 12:50:48;;;;;;;2.23;2.03;;;17.60;89.50;;;;;;5132147;27;20420;-36
2022/11/12 12:53:15;;;;;;;3.60;2.27;;;17.50;89.10;;;;;;5133184;27;20515;-36
2022/11/12 12:55:45;;;;;;;3.40;2.50;;;17.40;89.60;;;;;;5133674;27;20409;-37
2022/11/12 12:58:27;;;;;;;3.00;1.90;;;17.40;90.10;;;;;;5131588;27;20444;-36
2022/11/12 13:01:19;;;;;;;3.33;2.07;;;17.40;90.50;;;;;;5099181;27;20452;-36
2022/11/12 13:04:14;;;;;;;12.67;2.40;;;17.40;90.90;;;;;;5110805;27;20496;-35
2022/11/12 13:06:52;;;;;;;2.33;1.90;;;17.40;90.10;;;;;;5088469;28;20448;-36
2022/11/12 13:09:18;;;;;;;2.23;1.77;;;17.50;89.80;;;;;;5112119;28;20959;-37
2022/11/12 13:14:30;;;;;;;2.13;1.80;;;17.50;89.10;;;;;;5130103;27;20664;-36
2022/11/12 13:17:00;;;;;;;1.77;1.67;;;17.40;89.10;;;;;;5133148;27;20419;-36
2022/11/12 13:19:31;;;;;;;3.00;1.70;;;17.40;89.00;;;;;;5132397;27;20471;-36
2022/11/12 13:22:17;;;;;;;2.27;1.80;;;17.40;89.30;;;;;;5133328;27;20444;-35
2022/11/12 13:25:04;;;;;;;2.80;2.13;;;17.40;90.20;;;;;;5132200;27;20425;-37
2022/11/12 13:27:39;;;;;;;1.40;1.30;;;17.40;90.20;;;;;;5133076;27;20442;-36
2022/11/12 13:30:08;;;;;;;2.70;1.87;;;17.30;88.60;;;;;;5131186;27;20456;-36
2022/11/12 13:32:36;;;;;;;1.53;1.43;;;17.30;89.30;;;;;;5131710;27;20508;-36
2022/11/12 13:35:10;;;;;;;2.57;1.40;;;17.30;89.50;;;;;;5131347;27;20413;-36